sensor_id;sensor_type;location;lat;lon;timestamp;P1;durP1;ratioP1;P2;durP2;ratioP2
67195;SDS011;54122;53.538;49.366;2023-08-24T00:00:13;4.63;;;2.42;;
67195;SDS011;54122;53.538;49.366;2023-08-24T00:02:39;8.75;;;2.90;;
67195;SDS011;54122;53.538;49.366;2023-08-24T00:05:06;4.68;;;2.65;;
67195;SDS011;54122;53.538;49.366;2023-08-24T00:07:32;6.80;;;3.13;;
67195;SDS011;54122;53.538;49.366;2023-08-24T00:09:58;5.47;;;2.58;;
67195;SDS011;54122;53.538;49.366;2023-08-24T00:12:24;5.50;;;2.75;;
67195;SDS011;54122;53.538;49.366;2023-08-24T00:14:51;8.07;;;2.78;;
67195;SDS011;54122;53.538;49.366;2023-08-24T00:17:17;5.90;;;2.90;;
67195;SDS011;54122;53.538;49.366;2023-08-24T00:19:43;5.32;;;2.85;;
67195;SDS011;54122;53.538;49.366;2023-08-24T00:22:11;10.13;;;2.75;;
67195;SDS011;54122;53.538;49.366;2023-08-24T00:24:38;11.40;;;3.45;;
67195;SDS011;54122;53.538;49.366;2023-08-24T00:27:04;15.00;;;3.47;;
67195;SDS011;54122;53.538;49.366;2023-08-24T00:29:30;7.85;;;3.58;;
67195;SDS011;54122;53.538;49.366;2023-08-24T00:31:56;7.93;;;3.60;;
67195;SDS011;54122;53.538;49.366;2023-08-24T00:34:23;6.70;;;3.50;;
67195;SDS011;54122;53.538;49.366;2023-08-24T00:36:49;7.00;;;3.22;;
67195;SDS011;54122;53.538;49.366;2023-08-24T00:39:15;7.05;;;3.35;;
67195;SDS011;54122;53.538;49.366;2023-08-24T00:41:44;6.75;;;2.72;;
67195;SDS011;54122;53.538;49.366;2023-08-24T00:44:10;9.23;;;3.50;;
67195;SDS011;54122;53.538;49.366;2023-08-24T00:46:37;8.38;;;3.53;;
67195;SDS011;54122;53.538;49.366;2023-08-24T00:49:03;5.05;;;2.92;;
67195;SDS011;54122;53.538;49.366;2023-08-24T00:51:29;4.25;;;3.00;;
67195;SDS011;54122;53.538;49.366;2023-08-24T00:53:56;9.93;;;3.83;;
67195;SDS011;54122;53.538;49.366;2023-08-24T00:56:22;12.63;;;3.25;;
67195;SDS011;54122;53.538;49.366;2023-08-24T00:58:50;4.50;;;3.03;;
67195;SDS011;54122;53.538;49.366;2023-08-24T01:01:17;9.02;;;4.07;;
67195;SDS011;54122;53.538;49.366;2023-08-24T01:03:45;6.75;;;3.47;;
67195;SDS011;54122;53.538;49.366;2023-08-24T01:06:11;10.43;;;3.67;;
67195;SDS011;54122;53.538;49.366;2023-08-24T01:08:37;7.50;;;4.35;;
67195;SDS011;54122;53.538;49.366;2023-08-24T01:11:08;6.93;;;3.63;;
67195;SDS011;54122;53.538;49.366;2023-08-24T01:13:50;6.25;;;3.03;;
67195;SDS011;54122;53.538;49.366;2023-08-24T01:16:39;4.93;;;2.85;;
67195;SDS011;54122;53.538;49.366;2023-08-24T01:19:18;11.25;;;3.45;;
67195;SDS011;54122;53.538;49.366;2023-08-24T01:27:37;4.88;;;2.83;;
67195;SDS011;54122;53.538;49.366;2023-08-24T01:30:04;6.30;;;3.17;;
67195;SDS011;54122;53.538;49.366;2023-08-24T01:32:32;10.25;;;3.22;;
67195;SDS011;54122;53.538;49.366;2023-08-24T01:34:58;5.68;;;3.20;;
67195;SDS011;54122;53.538;49.366;2023-08-24T01:37:26;6.25;;;3.00;;
67195;SDS011;54122;53.538;49.366;2023-08-24T01:42:52;7.22;;;2.85;;
67195;SDS011;54122;53.538;49.366;2023-08-24T01:45:29;6.30;;;3.80;;
67195;SDS011;54122;53.538;49.366;2023-08-24T01:47:57;13.10;;;3.00;;
67195;SDS011;54122;53.538;49.366;2023-08-24T01:50:26;7.45;;;3.72;;
67195;SDS011;54122;53.538;49.366;2023-08-24T01:52:53;4.75;;;3.05;;
67195;SDS011;54122;53.538;49.366;2023-08-24T01:55:19;4.78;;;2.97;;
67195;SDS011;54122;53.538;49.366;2023-08-24T01:57:46;5.88;;;3.17;;
67195;SDS011;54122;53.538;49.366;2023-08-24T02:00:13;5.88;;;3.05;;
67195;SDS011;54122;53.538;49.366;2023-08-24T02:02:39;7.13;;;3.38;;
67195;SDS011;54122;53.538;49.366;2023-08-24T02:05:07;4.75;;;2.88;;
67195;SDS011;54122;53.538;49.366;2023-08-24T02:07:34;6.63;;;3.45;;
67195;SDS011;54122;53.538;49.366;2023-08-24T02:10:01;5.88;;;3.30;;
67195;SDS011;54122;53.538;49.366;2023-08-24T02:12:28;6.47;;;3.58;;
67195;SDS011;54122;53.538;49.366;2023-08-24T02:14:54;9.48;;;3.05;;
67195;SDS011;54122;53.538;49.366;2023-08-24T02:17:21;7.95;;;3.42;;
67195;SDS011;54122;53.538;49.366;2023-08-24T02:19:47;16.88;;;7.22;;
67195;SDS011;54122;53.538;49.366;2023-08-24T02:22:14;29.90;;;15.93;;
67195;SDS011;54122;53.538;49.366;2023-08-24T02:24:40;7.43;;;4.13;;
67195;SDS011;54122;53.538;49.366;2023-08-24T02:27:06;7.97;;;2.90;;
67195;SDS011;54122;53.538;49.366;2023-08-24T02:29:33;6.43;;;3.95;;
67195;SDS011;54122;53.538;49.366;2023-08-24T02:31:59;10.82;;;4.03;;
67195;SDS011;54122;53.538;49.366;2023-08-24T02:34:26;17.95;;;4.50;;
67195;SDS011;54122;53.538;49.366;2023-08-24T02:36:52;7.65;;;4.55;;
67195;SDS011;54122;53.538;49.366;2023-08-24T02:39:19;8.02;;;4.38;;
67195;SDS011;54122;53.538;49.366;2023-08-24T02:41:45;6.75;;;3.97;;
67195;SDS011;54122;53.538;49.366;2023-08-24T02:44:11;7.70;;;3.88;;
67195;SDS011;54122;53.538;49.366;2023-08-24T02:46:39;9.40;;;5.72;;
67195;SDS011;54122;53.538;49.366;2023-08-24T02:49:05;6.20;;;4.53;;
67195;SDS011;54122;53.538;49.366;2023-08-24T02:51:32;16.08;;;5.07;;
67195;SDS011;54122;53.538;49.366;2023-08-24T02:53:58;22.63;;;5.07;;
67195;SDS011;54122;53.538;49.366;2023-08-24T02:56:24;14.05;;;5.50;;
67195;SDS011;54122;53.538;49.366;2023-08-24T02:58:51;14.77;;;6.63;;
67195;SDS011;54122;53.538;49.366;2023-08-24T03:01:18;15.07;;;5.78;;
67195;SDS011;54122;53.538;49.366;2023-08-24T03:03:44;17.77;;;6.38;;
67195;SDS011;54122;53.538;49.366;2023-08-24T03:06:11;11.07;;;5.25;;
67195;SDS011;54122;53.538;49.366;2023-08-24T03:08:38;9.07;;;4.68;;
67195;SDS011;54122;53.538;49.366;2023-08-24T03:11:04;8.52;;;3.72;;
67195;SDS011;54122;53.538;49.366;2023-08-24T03:13:31;6.63;;;3.97;;
67195;SDS011;54122;53.538;49.366;2023-08-24T03:16:02;10.13;;;4.68;;
67195;SDS011;54122;53.538;49.366;2023-08-24T03:18:31;11.77;;;5.10;;
67195;SDS011;54122;53.538;49.366;2023-08-24T03:20:57;17.52;;;5.32;;
67195;SDS011;54122;53.538;49.366;2023-08-24T03:23:27;12.57;;;5.00;;
67195;SDS011;54122;53.538;49.366;2023-08-24T03:25:54;7.88;;;5.30;;
67195;SDS011;54122;53.538;49.366;2023-08-24T03:28:22;16.13;;;5.95;;
67195;SDS011;54122;53.538;49.366;2023-08-24T03:30:49;20.98;;;5.63;;
67195;SDS011;54122;53.538;49.366;2023-08-24T03:33:18;18.52;;;5.93;;
67195;SDS011;54122;53.538;49.366;2023-08-24T03:35:46;17.23;;;5.75;;
67195;SDS011;54122;53.538;49.366;2023-08-24T03:38:13;33.92;;;5.95;;
67195;SDS011;54122;53.538;49.366;2023-08-24T03:40:41;16.50;;;5.70;;
67195;SDS011;54122;53.538;49.366;2023-08-24T03:43:08;16.85;;;6.30;;
67195;SDS011;54122;53.538;49.366;2023-08-24T03:45:34;12.93;;;5.68;;
67195;SDS011;54122;53.538;49.366;2023-08-24T03:48:01;27.15;;;4.53;;
67195;SDS011;54122;53.538;49.366;2023-08-24T03:50:27;16.40;;;5.10;;
67195;SDS011;54122;53.538;49.366;2023-08-24T03:52:54;10.85;;;3.85;;
67195;SDS011;54122;53.538;49.366;2023-08-24T03:55:20;11.05;;;4.05;;
67195;SDS011;54122;53.538;49.366;2023-08-24T03:57:47;10.18;;;3.90;;
67195;SDS011;54122;53.538;49.366;2023-08-24T04:00:13;9.68;;;3.13;;
67195;SDS011;54122;53.538;49.366;2023-08-24T04:02:41;8.20;;;2.72;;
67195;SDS011;54122;53.538;49.366;2023-08-24T04:05:07;20.92;;;3.70;;
67195;SDS011;54122;53.538;49.366;2023-08-24T04:07:34;9.00;;;3.35;;
67195;SDS011;54122;53.538;49.366;2023-08-24T04:10:05;11.23;;;3.30;;
67195;SDS011;54122;53.538;49.366;2023-08-24T04:12:32;13.57;;;2.45;;
67195;SDS011;54122;53.538;49.366;2023-08-24T04:14:59;8.82;;;2.53;;
67195;SDS011;54122;53.538;49.366;2023-08-24T04:17:25;5.93;;;2.80;;
67195;SDS011;54122;53.538;49.366;2023-08-24T04:19:52;25.75;;;3.58;;
67195;SDS011;54122;53.538;49.366;2023-08-24T04:22:18;8.35;;;3.95;;
67195;SDS011;54122;53.538;49.366;2023-08-24T04:24:45;9.05;;;4.15;;
67195;SDS011;54122;53.538;49.366;2023-08-24T04:27:12;10.68;;;3.88;;
67195;SDS011;54122;53.538;49.366;2023-08-24T04:29:38;14.43;;;3.55;;
67195;SDS011;54122;53.538;49.366;2023-08-24T04:32:05;9.35;;;3.72;;
67195;SDS011;54122;53.538;49.366;2023-08-24T04:34:32;8.50;;;3.58;;
67195;SDS011;54122;53.538;49.366;2023-08-24T04:36:58;10.48;;;3.22;;
67195;SDS011;54122;53.538;49.366;2023-08-24T04:39:24;8.25;;;3.45;;
67195;SDS011;54122;53.538;49.366;2023-08-24T04:41:51;8.23;;;3.13;;
67195;SDS011;54122;53.538;49.366;2023-08-24T04:44:17;9.90;;;3.05;;
67195;SDS011;54122;53.538;49.366;2023-08-24T04:46:44;3.67;;;2.33;;
67195;SDS011;54122;53.538;49.366;2023-08-24T04:49:10;9.88;;;2.65;;
67195;SDS011;54122;53.538;49.366;2023-08-24T04:51:37;5.90;;;2.38;;
67195;SDS011;54122;53.538;49.366;2023-08-24T04:54:03;4.65;;;1.73;;
67195;SDS011;54122;53.538;49.366;2023-08-24T04:56:30;3.95;;;1.85;;
67195;SDS011;54122;53.538;49.366;2023-08-24T04:58:57;5.22;;;2.03;;
67195;SDS011;54122;53.538;49.366;2023-08-24T05:01:23;4.15;;;1.85;;
67195;SDS011;54122;53.538;49.366;2023-08-24T05:03:53;11.05;;;2.28;;
67195;SDS011;54122;53.538;49.366;2023-08-24T05:06:20;5.53;;;2.60;;
67195;SDS011;54122;53.538;49.366;2023-08-24T05:08:46;9.38;;;1.92;;
67195;SDS011;54122;53.538;49.366;2023-08-24T05:11:13;6.07;;;2.67;;
67195;SDS011;54122;53.538;49.366;2023-08-24T05:13:42;5.65;;;2.15;;
67195;SDS011;54122;53.538;49.366;2023-08-24T05:16:11;4.90;;;2.03;;
67195;SDS011;54122;53.538;49.366;2023-08-24T05:18:38;5.70;;;1.77;;
67195;SDS011;54122;53.538;49.366;2023-08-24T05:21:05;10.50;;;1.63;;
67195;SDS011;54122;53.538;49.366;2023-08-24T05:23:32;6.90;;;1.80;;
67195;SDS011;54122;53.538;49.366;2023-08-24T05:25:59;3.35;;;1.83;;
67195;SDS011;54122;53.538;49.366;2023-08-24T05:28:28;3.63;;;1.40;;
67195;SDS011;54122;53.538;49.366;2023-08-24T05:30:55;4.25;;;2.22;;
67195;SDS011;54122;53.538;49.366;2023-08-24T05:33:22;3.80;;;1.73;;
67195;SDS011;54122;53.538;49.366;2023-08-24T05:35:49;2.75;;;1.40;;
67195;SDS011;54122;53.538;49.366;2023-08-24T05:38:17;3.88;;;1.58;;
67195;SDS011;54122;53.538;49.366;2023-08-24T05:40:45;2.97;;;1.23;;
67195;SDS011;54122;53.538;49.366;2023-08-24T05:43:13;2.15;;;0.98;;
67195;SDS011;54122;53.538;49.366;2023-08-24T05:45:39;2.25;;;1.00;;
67195;SDS011;54122;53.538;49.366;2023-08-24T05:48:06;4.65;;;1.60;;
67195;SDS011;54122;53.538;49.366;2023-08-24T05:50:33;4.55;;;1.23;;
67195;SDS011;54122;53.538;49.366;2023-08-24T05:52:59;2.45;;;0.73;;
67195;SDS011;54122;53.538;49.366;2023-08-24T05:55:25;1.60;;;0.82;;
67195;SDS011;54122;53.538;49.366;2023-08-24T05:57:51;1.55;;;0.85;;
67195;SDS011;54122;53.538;49.366;2023-08-24T06:00:19;1.63;;;0.90;;
67195;SDS011;54122;53.538;49.366;2023-08-24T06:02:47;1.90;;;0.73;;
67195;SDS011;54122;53.538;49.366;2023-08-24T06:05:14;4.35;;;1.25;;
67195;SDS011;54122;53.538;49.366;2023-08-24T06:07:41;2.95;;;1.10;;
67195;SDS011;54122;53.538;49.366;2023-08-24T06:10:07;9.05;;;1.05;;
67195;SDS011;54122;53.538;49.366;2023-08-24T06:12:34;1.95;;;0.80;;
67195;SDS011;54122;53.538;49.366;2023-08-24T06:15:00;3.35;;;0.95;;
67195;SDS011;54122;53.538;49.366;2023-08-24T06:17:31;5.15;;;1.15;;
67195;SDS011;54122;53.538;49.366;2023-08-24T06:19:57;3.75;;;1.17;;
67195;SDS011;54122;53.538;49.366;2023-08-24T06:22:24;5.20;;;1.23;;
67195;SDS011;54122;53.538;49.366;2023-08-24T06:24:50;3.08;;;1.20;;
67195;SDS011;54122;53.538;49.366;2023-08-24T06:27:17;6.10;;;1.00;;
67195;SDS011;54122;53.538;49.366;2023-08-24T06:29:43;2.92;;;1.45;;
67195;SDS011;54122;53.538;49.366;2023-08-24T06:32:09;4.38;;;1.05;;
67195;SDS011;54122;53.538;49.366;2023-08-24T06:34:36;1.05;;;0.70;;
67195;SDS011;54122;53.538;49.366;2023-08-24T06:37:02;3.00;;;0.95;;
67195;SDS011;54122;53.538;49.366;2023-08-24T06:39:30;4.18;;;1.38;;
67195;SDS011;54122;53.538;49.366;2023-08-24T06:41:57;2.30;;;1.05;;
67195;SDS011;54122;53.538;49.366;2023-08-24T06:44:23;3.08;;;1.02;;
67195;SDS011;54122;53.538;49.366;2023-08-24T06:46:50;4.00;;;1.23;;
67195;SDS011;54122;53.538;49.366;2023-08-24T06:49:16;6.30;;;1.20;;
67195;SDS011;54122;53.538;49.366;2023-08-24T06:51:43;2.47;;;1.13;;
67195;SDS011;54122;53.538;49.366;2023-08-24T06:54:10;2.90;;;1.20;;
67195;SDS011;54122;53.538;49.366;2023-08-24T06:56:36;1.23;;;0.90;;
67195;SDS011;54122;53.538;49.366;2023-08-24T06:59:03;2.53;;;1.13;;
67195;SDS011;54122;53.538;49.366;2023-08-24T07:01:29;2.38;;;0.98;;
67195;SDS011;54122;53.538;49.366;2023-08-24T07:03:57;8.68;;;1.58;;
67195;SDS011;54122;53.538;49.366;2023-08-24T07:06:24;12.82;;;1.58;;
67195;SDS011;54122;53.538;49.366;2023-08-24T07:08:50;3.65;;;1.15;;
67195;SDS011;54122;53.538;49.366;2023-08-24T07:11:17;6.60;;;1.63;;
67195;SDS011;54122;53.538;49.366;2023-08-24T07:13:44;5.93;;;1.40;;
67195;SDS011;54122;53.538;49.366;2023-08-24T07:16:11;2.78;;;0.60;;
67195;SDS011;54122;53.538;49.366;2023-08-24T07:18:39;3.33;;;0.82;;
67195;SDS011;54122;53.538;49.366;2023-08-24T07:21:05;1.23;;;0.50;;
67195;SDS011;54122;53.538;49.366;2023-08-24T07:23:33;1.17;;;0.65;;
67195;SDS011;54122;53.538;49.366;2023-08-24T07:26:00;2.20;;;0.88;;
67195;SDS011;54122;53.538;49.366;2023-08-24T07:28:27;3.25;;;0.60;;
67195;SDS011;54122;53.538;49.366;2023-08-24T07:30:53;1.63;;;0.90;;
67195;SDS011;54122;53.538;49.366;2023-08-24T07:33:21;0.90;;;0.50;;
67195;SDS011;54122;53.538;49.366;2023-08-24T07:35:48;1.27;;;0.60;;
67195;SDS011;54122;53.538;49.366;2023-08-24T07:38:14;0.68;;;0.50;;
67195;SDS011;54122;53.538;49.366;2023-08-24T07:40:41;1.65;;;0.68;;
67195;SDS011;54122;53.538;49.366;2023-08-24T07:43:07;2.38;;;0.45;;
67195;SDS011;54122;53.538;49.366;2023-08-24T07:45:34;1.15;;;0.35;;
67195;SDS011;54122;53.538;49.366;2023-08-24T07:48:00;4.32;;;1.02;;
67195;SDS011;54122;53.538;49.366;2023-08-24T07:50:27;3.47;;;0.60;;
67195;SDS011;54122;53.538;49.366;2023-08-24T07:52:53;0.90;;;0.55;;
67195;SDS011;54122;53.538;49.366;2023-08-24T07:55:19;6.13;;;0.77;;
67195;SDS011;54122;53.538;49.366;2023-08-24T07:57:46;1.55;;;0.70;;
67195;SDS011;54122;53.538;49.366;2023-08-24T08:00:15;0.90;;;0.60;;
67195;SDS011;54122;53.538;49.366;2023-08-24T08:02:45;1.77;;;0.70;;
67195;SDS011;54122;53.538;49.366;2023-08-24T08:05:11;1.08;;;0.50;;
67195;SDS011;54122;53.538;49.366;2023-08-24T08:07:38;0.22;;;0.22;;
67195;SDS011;54122;53.538;49.366;2023-08-24T08:10:05;1.33;;;0.47;;
67195;SDS011;54122;53.538;49.366;2023-08-24T08:12:32;0.70;;;0.40;;
67195;SDS011;54122;53.538;49.366;2023-08-24T08:14:59;0.80;;;0.50;;
67195;SDS011;54122;53.538;49.366;2023-08-24T08:17:26;1.63;;;0.47;;
67195;SDS011;54122;53.538;49.366;2023-08-24T08:19:56;1.65;;;0.52;;
67195;SDS011;54122;53.538;49.366;2023-08-24T08:22:23;1.38;;;0.60;;
67195;SDS011;54122;53.538;49.366;2023-08-24T08:24:51;1.10;;;0.47;;
67195;SDS011;54122;53.538;49.366;2023-08-24T08:27:19;0.55;;;0.40;;
67195;SDS011;54122;53.538;49.366;2023-08-24T08:29:47;4.80;;;0.82;;
67195;SDS011;54122;53.538;49.366;2023-08-24T08:32:14;6.03;;;0.90;;
67195;SDS011;54122;53.538;49.366;2023-08-24T08:34:40;0.73;;;0.40;;
67195;SDS011;54122;53.538;49.366;2023-08-24T08:37:07;1.40;;;0.73;;
67195;SDS011;54122;53.538;49.366;2023-08-24T08:39:33;1.25;;;0.82;;
67195;SDS011;54122;53.538;49.366;2023-08-24T08:42:00;2.00;;;0.55;;
67195;SDS011;54122;53.538;49.366;2023-08-24T08:44:30;1.67;;;0.80;;
67195;SDS011;54122;53.538;49.366;2023-08-24T08:46:58;2.05;;;1.00;;
67195;SDS011;54122;53.538;49.366;2023-08-24T08:49:24;1.75;;;1.00;;
67195;SDS011;54122;53.538;49.366;2023-08-24T08:51:51;0.93;;;0.60;;
67195;SDS011;54122;53.538;49.366;2023-08-24T08:54:18;3.28;;;0.80;;
67195;SDS011;54122;53.538;49.366;2023-08-24T08:56:44;2.67;;;0.90;;
67195;SDS011;54122;53.538;49.366;2023-08-24T08:59:11;0.75;;;0.52;;
67195;SDS011;54122;53.538;49.366;2023-08-24T09:01:40;1.33;;;0.60;;
67195;SDS011;54122;53.538;49.366;2023-08-24T09:04:09;5.05;;;0.43;;
67195;SDS011;54122;53.538;49.366;2023-08-24T09:06:37;0.95;;;0.55;;
67195;SDS011;54122;53.538;49.366;2023-08-24T09:09:04;3.20;;;0.85;;
67195;SDS011;54122;53.538;49.366;2023-08-24T09:11:30;2.88;;;0.75;;
67195;SDS011;54122;53.538;49.366;2023-08-24T09:13:56;6.55;;;1.83;;
67195;SDS011;54122;53.538;49.366;2023-08-24T09:16:22;6.03;;;1.65;;
67195;SDS011;54122;53.538;49.366;2023-08-24T09:18:48;8.20;;;1.27;;
67195;SDS011;54122;53.538;49.366;2023-08-24T09:21:15;2.17;;;0.93;;
67195;SDS011;54122;53.538;49.366;2023-08-24T09:23:45;1.75;;;0.65;;
67195;SDS011;54122;53.538;49.366;2023-08-24T09:26:26;3.83;;;0.95;;
67195;SDS011;54122;53.538;49.366;2023-08-24T09:28:54;6.60;;;0.88;;
67195;SDS011;54122;53.538;49.366;2023-08-24T09:31:20;1.15;;;0.70;;
67195;SDS011;54122;53.538;49.366;2023-08-24T09:33:47;2.58;;;0.82;;
67195;SDS011;54122;53.538;49.366;2023-08-24T09:36:16;2.33;;;1.10;;
67195;SDS011;54122;53.538;49.366;2023-08-24T09:38:48;1.48;;;0.82;;
67195;SDS011;54122;53.538;49.366;2023-08-24T09:41:15;4.82;;;0.90;;
67195;SDS011;54122;53.538;49.366;2023-08-24T09:43:41;1.65;;;0.70;;
67195;SDS011;54122;53.538;49.366;2023-08-24T09:46:07;10.43;;;0.88;;
67195;SDS011;54122;53.538;49.366;2023-08-24T09:48:33;1.65;;;0.88;;
67195;SDS011;54122;53.538;49.366;2023-08-24T09:51:00;0.85;;;0.60;;
67195;SDS011;54122;53.538;49.366;2023-08-24T09:53:31;2.35;;;0.60;;
67195;SDS011;54122;53.538;49.366;2023-08-24T09:56:00;5.95;;;1.00;;
67195;SDS011;54122;53.538;49.366;2023-08-24T09:58:28;0.82;;;0.50;;
67195;SDS011;54122;53.538;49.366;2023-08-24T10:00:55;1.58;;;0.70;;
67195;SDS011;54122;53.538;49.366;2023-08-24T10:03:25;9.13;;;1.23;;
67195;SDS011;54122;53.538;49.366;2023-08-24T10:05:53;2.25;;;0.63;;
67195;SDS011;54122;53.538;49.366;2023-08-24T10:08:27;2.53;;;0.80;;
67195;SDS011;54122;53.538;49.366;2023-08-24T10:10:55;1.08;;;0.73;;
67195;SDS011;54122;53.538;49.366;2023-08-24T10:13:46;2.83;;;0.80;;
67195;SDS011;54122;53.538;49.366;2023-08-24T10:16:14;1.67;;;0.70;;
67195;SDS011;54122;53.538;49.366;2023-08-24T10:18:44;5.05;;;0.77;;
67195;SDS011;54122;53.538;49.366;2023-08-24T10:21:11;1.92;;;0.77;;
67195;SDS011;54122;53.538;49.366;2023-08-24T10:23:38;2.40;;;0.70;;
67195;SDS011;54122;53.538;49.366;2023-08-24T10:26:08;2.15;;;1.02;;
67195;SDS011;54122;53.538;49.366;2023-08-24T10:28:36;3.63;;;1.67;;
67195;SDS011;54122;53.538;49.366;2023-08-24T10:31:04;1.45;;;0.73;;
67195;SDS011;54122;53.538;49.366;2023-08-24T10:33:32;3.65;;;0.90;;
67195;SDS011;54122;53.538;49.366;2023-08-24T10:36:00;4.90;;;0.80;;
67195;SDS011;54122;53.538;49.366;2023-08-24T10:38:29;0.95;;;0.60;;
67195;SDS011;54122;53.538;49.366;2023-08-24T10:41:05;6.47;;;1.15;;
67195;SDS011;54122;53.538;49.366;2023-08-24T10:43:38;10.57;;;1.00;;
67195;SDS011;54122;53.538;49.366;2023-08-24T10:46:13;2.42;;;0.80;;
67195;SDS011;54122;53.538;49.366;2023-08-24T10:51:18;7.03;;;1.05;;
67195;SDS011;54122;53.538;49.366;2023-08-24T10:54:06;2.25;;;0.73;;
67195;SDS011;54122;53.538;49.366;2023-08-24T10:59:13;1.33;;;0.82;;
67195;SDS011;54122;53.538;49.366;2023-08-24T11:01:41;1.15;;;0.73;;
67195;SDS011;54122;53.538;49.366;2023-08-24T11:04:10;1.98;;;0.93;;
67195;SDS011;54122;53.538;49.366;2023-08-24T11:09:24;1.65;;;0.73;;
67195;SDS011;54122;53.538;49.366;2023-08-24T11:11:56;2.72;;;1.20;;
67195;SDS011;54122;53.538;49.366;2023-08-24T11:14:29;6.65;;;1.08;;
67195;SDS011;54122;53.538;49.366;2023-08-24T11:16:59;2.45;;;0.50;;
67195;SDS011;54122;53.538;49.366;2023-08-24T11:19:28;0.90;;;0.47;;
67195;SDS011;54122;53.538;49.366;2023-08-24T11:21:56;1.85;;;0.70;;
67195;SDS011;54122;53.538;49.366;2023-08-24T11:24:23;7.30;;;1.20;;
67195;SDS011;54122;53.538;49.366;2023-08-24T11:26:50;1.35;;;0.60;;
67195;SDS011;54122;53.538;49.366;2023-08-24T11:29:18;3.20;;;0.70;;
67195;SDS011;54122;53.538;49.366;2023-08-24T11:31:44;2.63;;;1.40;;
67195;SDS011;54122;53.538;49.366;2023-08-24T11:34:14;1.77;;;1.10;;
67195;SDS011;54122;53.538;49.366;2023-08-24T11:36:41;6.25;;;1.85;;
67195;SDS011;54122;53.538;49.366;2023-08-24T11:39:19;5.55;;;1.20;;
67195;SDS011;54122;53.538;49.366;2023-08-24T11:41:58;3.95;;;1.50;;
67195;SDS011;54122;53.538;49.366;2023-08-24T11:47:09;6.18;;;2.10;;
67195;SDS011;54122;53.538;49.366;2023-08-24T11:49:36;4.85;;;2.33;;
67195;SDS011;54122;53.538;49.366;2023-08-24T11:52:03;3.08;;;1.40;;
67195;SDS011;54122;53.538;49.366;2023-08-24T11:54:32;6.63;;;1.85;;
67195;SDS011;54122;53.538;49.366;2023-08-24T11:56:58;9.40;;;1.95;;
67195;SDS011;54122;53.538;49.366;2023-08-24T11:59:25;4.43;;;1.40;;
67195;SDS011;54122;53.538;49.366;2023-08-24T12:01:52;13.30;;;1.88;;
67195;SDS011;54122;53.538;49.366;2023-08-24T12:04:19;4.85;;;1.60;;
67195;SDS011;54122;53.538;49.366;2023-08-24T12:06:45;9.50;;;1.92;;
67195;SDS011;54122;53.538;49.366;2023-08-24T12:09:11;7.55;;;1.60;;
67195;SDS011;54122;53.538;49.366;2023-08-24T12:11:37;5.70;;;1.70;;
67195;SDS011;54122;53.538;49.366;2023-08-24T12:14:07;5.18;;;2.30;;
67195;SDS011;54122;53.538;49.366;2023-08-24T12:16:36;4.85;;;1.52;;
67195;SDS011;54122;53.538;49.366;2023-08-24T12:19:06;5.95;;;1.70;;
67195;SDS011;54122;53.538;49.366;2023-08-24T12:21:33;5.05;;;1.90;;
67195;SDS011;54122;53.538;49.366;2023-08-24T12:24:01;8.13;;;1.60;;
67195;SDS011;54122;53.538;49.366;2023-08-24T12:26:31;3.38;;;1.38;;
67195;SDS011;54122;53.538;49.366;2023-08-24T12:29:03;5.15;;;1.10;;
67195;SDS011;54122;53.538;49.366;2023-08-24T12:31:33;3.22;;;1.25;;
67195;SDS011;54122;53.538;49.366;2023-08-24T12:36:29;9.07;;;1.85;;
67195;SDS011;54122;53.538;49.366;2023-08-24T12:38:57;10.75;;;2.38;;
67195;SDS011;54122;53.538;49.366;2023-08-24T12:41:23;13.25;;;2.78;;
67195;SDS011;54122;53.538;49.366;2023-08-24T12:43:52;10.98;;;3.60;;
67195;SDS011;54122;53.538;49.366;2023-08-24T12:46:19;10.15;;;2.28;;
67195;SDS011;54122;53.538;49.366;2023-08-24T12:48:45;10.23;;;2.58;;
67195;SDS011;54122;53.538;49.366;2023-08-24T12:51:11;4.55;;;1.33;;
67195;SDS011;54122;53.538;49.366;2023-08-24T12:53:37;14.65;;;2.17;;
67195;SDS011;54122;53.538;49.366;2023-08-24T12:56:04;18.27;;;2.03;;
67195;SDS011;54122;53.538;49.366;2023-08-24T12:58:30;5.07;;;1.33;;
67195;SDS011;54122;53.538;49.366;2023-08-24T13:00:58;9.48;;;1.73;;
67195;SDS011;54122;53.538;49.366;2023-08-24T13:03:25;14.85;;;1.58;;
67195;SDS011;54122;53.538;49.366;2023-08-24T13:05:51;8.05;;;2.40;;
67195;SDS011;54122;53.538;49.366;2023-08-24T13:08:18;4.85;;;2.53;;
67195;SDS011;54122;53.538;49.366;2023-08-24T13:10:44;6.30;;;1.30;;
67195;SDS011;54122;53.538;49.366;2023-08-24T13:13:11;4.82;;;1.20;;
67195;SDS011;54122;53.538;49.366;2023-08-24T13:15:38;2.35;;;0.90;;
67195;SDS011;54122;53.538;49.366;2023-08-24T13:18:04;2.10;;;0.70;;
67195;SDS011;54122;53.538;49.366;2023-08-24T13:20:30;0.88;;;0.60;;
67195;SDS011;54122;53.538;49.366;2023-08-24T13:22:56;1.08;;;0.60;;
67195;SDS011;54122;53.538;49.366;2023-08-24T13:25:22;5.18;;;0.77;;
67195;SDS011;54122;53.538;49.366;2023-08-24T13:27:48;2.30;;;0.70;;
67195;SDS011;54122;53.538;49.366;2023-08-24T13:30:14;5.47;;;0.82;;
67195;SDS011;54122;53.538;49.366;2023-08-24T13:32:41;2.10;;;1.08;;
67195;SDS011;54122;53.538;49.366;2023-08-24T13:35:08;1.75;;;0.80;;
67195;SDS011;54122;53.538;49.366;2023-08-24T13:37:34;1.10;;;0.73;;
67195;SDS011;54122;53.538;49.366;2023-08-24T13:40:00;2.15;;;0.60;;
67195;SDS011;54122;53.538;49.366;2023-08-24T13:42:27;3.92;;;1.60;;
67195;SDS011;54122;53.538;49.366;2023-08-24T13:44:53;2.53;;;1.25;;
67195;SDS011;54122;53.538;49.366;2023-08-24T13:47:19;1.67;;;0.63;;
67195;SDS011;54122;53.538;49.366;2023-08-24T13:49:47;2.90;;;0.85;;
67195;SDS011;54122;53.538;49.366;2023-08-24T13:52:14;13.85;;;1.63;;
67195;SDS011;54122;53.538;49.366;2023-08-24T13:54:41;1.67;;;0.50;;
67195;SDS011;54122;53.538;49.366;2023-08-24T13:57:08;2.45;;;0.73;;
67195;SDS011;54122;53.538;49.366;2023-08-24T13:59:34;2.28;;;0.77;;
67195;SDS011;54122;53.538;49.366;2023-08-24T14:02:04;2.10;;;0.80;;
67195;SDS011;54122;53.538;49.366;2023-08-24T14:04:32;1.27;;;0.80;;
67195;SDS011;54122;53.538;49.366;2023-08-24T14:06:58;1.10;;;0.57;;
67195;SDS011;54122;53.538;49.366;2023-08-24T14:09:25;1.55;;;0.70;;
67195;SDS011;54122;53.538;49.366;2023-08-24T14:11:51;0.75;;;0.60;;
67195;SDS011;54122;53.538;49.366;2023-08-24T14:14:17;1.30;;;0.60;;
67195;SDS011;54122;53.538;49.366;2023-08-24T14:16:43;1.15;;;0.77;;
67195;SDS011;54122;53.538;49.366;2023-08-24T14:19:09;1.25;;;0.80;;
67195;SDS011;54122;53.538;49.366;2023-08-24T14:21:35;1.70;;;0.93;;
67195;SDS011;54122;53.538;49.366;2023-08-24T14:24:01;2.05;;;1.00;;
67195;SDS011;54122;53.538;49.366;2023-08-24T14:26:28;3.17;;;0.68;;
67195;SDS011;54122;53.538;49.366;2023-08-24T14:28:55;1.15;;;0.45;;
67195;SDS011;54122;53.538;49.366;2023-08-24T14:31:25;1.63;;;0.80;;
67195;SDS011;54122;53.538;49.366;2023-08-24T14:33:55;1.05;;;0.77;;
67195;SDS011;54122;53.538;49.366;2023-08-24T14:36:22;0.98;;;0.50;;
67195;SDS011;54122;53.538;49.366;2023-08-24T14:38:49;1.85;;;0.70;;
67195;SDS011;54122;53.538;49.366;2023-08-24T14:41:18;2.20;;;0.70;;
67195;SDS011;54122;53.538;49.366;2023-08-24T14:43:45;2.60;;;0.70;;
67195;SDS011;54122;53.538;49.366;2023-08-24T14:46:12;4.53;;;0.73;;
67195;SDS011;54122;53.538;49.366;2023-08-24T14:48:38;5.88;;;1.27;;
67195;SDS011;54122;53.538;49.366;2023-08-24T14:51:05;9.05;;;1.15;;
67195;SDS011;54122;53.538;49.366;2023-08-24T14:53:31;6.65;;;1.13;;
67195;SDS011;54122;53.538;49.366;2023-08-24T14:55:58;1.98;;;0.88;;